Terminal Aerodrome Forecast
Issued by NWS Charleston, WV

Home | Current Version | Previous Version | Text Only | Print | Product List | Glossary On
Versions: 1 2 3 4 5 6 7 8 9 10 11 12 13 14 15 16 17 18 19 20 21 22 23 24
000
FTUS41 KRLX 250500
TAFPKB
TAF
KPKB 250520Z 2506/2606 10005KT P6SM SCT250
     FM251200 15008KT 5SM -SHRA OVC060
     FM251500 18011G17KT 4SM -SHRA OVC020
     FM251600 19011G17KT 3SM -SHRA VCTS OVC020CB
     FM251800 19011KT 5SM -SHRA VCTS OVC020CB
     FM252000 23012G19KT P6SM BKN015
     FM252300 27012G26KT P6SM SCT015=

USA.gov is the U.S. government's official web portal to all federal, state and local government web resources and services.